Clarkson Valley, Missouri
Current Conditions -  °F | °C
As of 1:54 PM on Wednesday 26 Nov 2014 (Local Time) from KSUS Reporting Station
Light Snow Light Snow  
Wind Chill: 33°   Ceiling: 600
Heat Index: 33°   Visibility: 0.75mi
Dew Point: 31°   Wind: 3mph
Humidity: 92%   Direction: 140°SE
Pressure: 29.97"   Gusts: NA
Location:  38.6517°N, 90.5361°W
Report Text: KSUS 261954Z 14003KT 3/4SM R08R/4000V5500FT -SN BR OVC006 01/M01 A2997 RMK AO2 SLP159 P0005 T00061006
Loading
Personal Weather Stations






























Interactive Weather Map New forecast layout! Learn more

10-Day Weather Forecast

Advertisements
Track Severe Weather on mobile